| time (UTC) | temp C | wind direction | speed KPH | gust KPH | rain 1hr cm | rain 24hr cm | rain mn cm | humidity % | barometer mb |
| 20260906232123 | 14 | 119 | 6.4 | 16.1 | 0.00 | 0.18 | 0.05 | 90 | 1016.8 |
| 20260906231122 | 14 | 119 | 9.7 | 22.5 | 0.00 | 0.18 | 0.05 | 88 | 1016.9 |
| 20260906230122 | 14 | 126 | 8.0 | 19.3 | 0.00 | 0.18 | 0.05 | 89 | 1016.9 |
| 20260906225143 | 14 | 126 | 9.7 | 24.1 | 0.00 | 0.18 | 0.05 | 90 | 1017.0 |
| 20260906224147 | 13 | 112 | 9.7 | 22.5 | 0.00 | 0.18 | 0.05 | 91 | 1017.0 |
| 20260906223122 | 13 | 115 | 11.3 | 22.5 | 0.00 | 0.18 | 0.05 | 90 | 1017.2 |
| 20260906222125 | 13 | 120 | 9.7 | 19.3 | 0.00 | 0.18 | 0.05 | 89 | 1017.2 |
| 20260906221123 | 13 | 121 | 9.7 | 20.9 | 0.00 | 0.18 | 0.05 | 90 | 1017.2 |
| 20260906220124 | 13 | 115 | 8.0 | 17.7 | 0.00 | 0.18 | 0.05 | 91 | 1017.2 |
| 20260906215122 | 13 | 118 | 9.7 | 19.3 | 0.00 | 0.18 | 0.05 | 89 | 1017.2 |
| 20260906214122 | 13 | 119 | 8.0 | 19.3 | 0.00 | 0.18 | 0.05 | 92 | 1017.2 |
| 20260906213126 | 13 | 119 | 9.7 | 19.3 | 0.00 | 0.18 | 0.05 | 92 | 1017.2 |
| 20260906212123 | 13 | 129 | 8.0 | 20.9 | 0.00 | 0.18 | 0.05 | 93 | 1017.2 |
| 20260906211123 | 13 | 117 | 9.7 | 19.3 | 0.00 | 0.20 | 0.05 | 96 | 1017.2 |
| 20260906210123 | 12 | 107 | 6.4 | 16.1 | 0.00 | 0.20 | 0.05 | 98 | 1017.2 |
| 20260906205122 | 12 | 118 | 6.4 | 14.5 | 0.00 | 0.20 | 0.05 | 98 | 1017.4 |
| 20260906204143 | 12 | 108 | 6.4 | 14.5 | 0.00 | 0.23 | 0.05 | 99 | 1017.4 |
| 20260906203125 | 12 | 114 | 6.4 | 14.5 | 0.00 | 0.23 | 0.05 | 99 | 1017.6 |
| 20260906202123 | 12 | 112 | 6.4 | 12.9 | 0.00 | 0.23 | 0.05 | 99 | 1017.7 |
| 20260906201125 | 12 | 112 | 8.0 | 16.1 | 0.00 | 0.23 | 0.05 | 99 | 1017.8 |
| 20260906200124 | 12 | 117 | 8.0 | 19.3 | 0.00 | 0.23 | 0.05 | 99 | 1017.8 |
| 20260906195125 | 12 | 108 | 9.7 | 20.9 | 0.00 | 0.23 | 0.05 | 99 | 1017.8 |
| 20260906194143 | 11 | 109 | 9.7 | 19.3 | 0.00 | 0.23 | 0.05 | 99 | 1017.9 |
| 20260906193126 | 11 | 106 | 11.3 | 25.7 | 0.00 | 0.23 | 0.05 | 99 | 1017.9 |
| 20260906192122 | 11 | 107 | 11.3 | 22.5 | 0.00 | 0.23 | 0.05 | 99 | 1018.0 |
| 20260906191123 | 11 | 110 | 9.7 | 24.1 | 0.00 | 0.23 | 0.05 | 99 | 1018.2 |
| 20260906190123 | 11 | 119 | 11.3 | 22.5 | 0.00 | 0.23 | 0.05 | 99 | 1018.2 |
| 20260906185145 | 11 | 115 | 11.3 | 22.5 | 0.00 | 0.23 | 0.05 | 99 | 1018.2 |
| 20260906184122 | 11 | 110 | 9.7 | 22.5 | 0.00 | 0.23 | 0.05 | 99 | 1018.2 |
| 20260906183122 | 10 | 96 | 8.0 | 20.9 | 0.00 | 0.23 | 0.05 | 99 | 1018.2 |
| 20260906182122 | 10 | 103 | 11.3 | 20.9 | 0.03 | 0.23 | 0.05 | 99 | 1018.2 |
| 20260906181127 | 10 | 105 | 8.0 | 19.3 | 0.03 | 0.23 | 0.05 | 99 | 1018.4 |
| 20260906180126 | 10 | 109 | 8.0 | 20.9 | 0.03 | 0.23 | 0.05 | 99 | 1018.4 |
| 20260906175122 | 10 | 90 | 9.7 | 20.9 | 0.03 | 0.23 | 0.05 | 99 | 1018.6 |
| 20260906174127 | 10 | 96 | 8.0 | 16.1 | 0.03 | 0.23 | 0.05 | 99 | 1018.7 |
| 20260906173122 | 10 | 98 | 8.0 | 17.7 | 0.03 | 0.23 | 0.05 | 99 | 1018.7 |
| 20260906172143 | 9 | 101 | 8.0 | 14.5 | 0.00 | 0.20 | 0.03 | 99 | 1018.8 |
| 20260906171127 | 9 | 103 | 6.4 | 14.5 | 0.00 | 0.20 | 0.03 | 99 | 1018.9 |
| 20260906170123 | 9 | 96 | 6.4 | 12.9 | 0.00 | 0.20 | 0.03 | 99 | 1018.9 |
| 20260906165144 | 9 | 108 | 6.4 | 12.9 | 0.00 | 0.20 | 0.03 | 99 | 1019.1 |
| 20260906164123 | 9 | 95 | 8.0 | 17.7 | 0.00 | 0.20 | 0.03 | 99 | 1019.2 |
| 20260906163122 | 10 | 106 | 8.0 | 17.7 | 0.00 | 0.20 | 0.03 | 99 | 1019.2 |
| 20260906162144 | 10 | 110 | 6.4 | 17.7 | 0.00 | 0.20 | 0.03 | 99 | 1019.2 |
| 20260906161145 | 10 | 103 | 6.4 | 12.9 | 0.00 | 0.20 | 0.03 | 99 | 1019.1 |
| 20260906160125 | 10 | 69 | 4.8 | 11.3 | 0.00 | 0.20 | 0.03 | 99 | 1019.1 |
| 20260906155122 | 9 | 95 | 4.8 | 11.3 | 0.00 | 0.20 | 0.03 | 99 | 1019.1 |
| 20260906154123 | 9 | 105 | 4.8 | 11.3 | 0.00 | 0.20 | 0.03 | 99 | 1019.1 |
| 20260906153125 | 9 | 114 | 4.8 | 11.3 | 0.00 | 0.20 | 0.03 | 99 | 1019.2 |
| 20260906152124 | 9 | 96 | 1.6 | 4.8 | 0.00 | 0.20 | 0.03 | 99 | 1019.0 |
| 20260906151143 | 9 | 338 | 0.0 | 0.0 | 0.00 | 0.20 | 0.03 | 99 | 1019.1 |
| 20260906150124 | 9 | 84 | 1.6 | 4.8 | 0.00 | 0.20 | 0.03 | 99 | 1019.1 |
| 20260906145122 | 9 | 90 | 0.0 | 4.8 | 0.00 | 0.20 | 0.03 | 99 | 1019.2 |
| 20260906144122 | 9 | 76 | 0.0 | 4.8 | 0.00 | 0.20 | 0.03 | 99 | 1019.0 |
| 20260906143144 | 8 | 299 | 1.6 | 6.4 | 0.00 | 0.20 | 0.03 | 99 | 1019.0 |
| 20260906142143 | 8 | 339 | 3.2 | 8.0 | 0.00 | 0.20 | 0.03 | 99 | 1019.2 |
| 20260906141123 | 8 | 323 | 4.8 | 9.7 | 0.00 | 0.20 | 0.03 | 99 | 1019.2 |
| 20260906140126 | 8 | 315 | 4.8 | 11.3 | 0.00 | 0.20 | 0.03 | 99 | 1019.2 |
| 20260906135123 | 8 | 297 | 6.4 | 12.9 | 0.00 | 0.20 | 0.03 | 99 | 1019.2 |
| 20260906134122 | 8 | 279 | 4.8 | 9.7 | 0.03 | 0.20 | 0.03 | 99 | 1019.2 |
| 20260906133125 | 8 | 267 | 4.8 | 11.3 | 0.03 | 0.20 | 0.03 | 99 | 1019.4 |
| 20260906132122 | 8 | 272 | 1.6 | 4.8 | 0.03 | 0.20 | 0.03 | 99 | 1019.2 |
| 20260906131124 | 8 | 101 | 0.0 | 4.8 | 0.03 | 0.20 | 0.03 | 99 | 1019.2 |
| 20260906130122 | 8 | 274 | 3.2 | 6.4 | 0.03 | 0.20 | 0.03 | 99 | 1019.2 |
| 20260906125122 | 8 | 259 | 3.2 | 8.0 | 0.03 | 0.20 | 0.03 | 99 | 1019.5 |
| 20260906124122 | 8 | 250 | 3.2 | 6.4 | 0.00 | 0.18 | 0.00 | 99 | 1019.7 |
| 20260906123123 | 8 | 246 | 4.8 | 9.7 | 0.00 | 0.18 | 0.00 | 99 | 1019.7 |
| 20260906122122 | 8 | 236 | 3.2 | 9.7 | 0.00 | 0.18 | 0.00 | 99 | 1019.8 |
| 20260906121122 | 8 | 233 | 3.2 | 11.3 | 0.00 | 0.18 | 0.00 | 99 | 1020.1 |
| 20260906120122 | 8 | 238 | 6.4 | 12.9 | 0.00 | 0.18 | 0.00 | 99 | 1020.1 |
| 20260906115123 | 8 | 178 | 6.4 | 12.9 | 0.00 | 0.18 | 0.00 | 99 | 1020.4 |
| 20260906114143 | 8 | 187 | 4.8 | 11.3 | 0.00 | 0.18 | 0.00 | 99 | 1020.2 |
| 20260906113122 | 8 | 184 | 4.8 | 11.3 | 0.00 | 0.18 | 0.00 | 99 | 1020.5 |
| 20260906112124 | 8 | 184 | 4.8 | 12.9 | 0.00 | 0.18 | 0.00 | 99 | 1020.6 |
| 20260906111122 | 8 | 167 | 6.4 | 12.9 | 0.00 | 0.18 | 0.00 | 99 | 1020.6 |
| 20260906110143 | 8 | 168 | 6.4 | 12.9 | 0.00 | 0.18 | 0.00 | 99 | 1020.6 |
| 20260906105143 | 8 | 176 | 3.2 | 9.7 | 0.00 | 0.18 | 0.00 | 99 | 1020.5 |
| 20260906104122 | 8 | 135 | 3.2 | 9.7 | 0.00 | 0.18 | 0.00 | 99 | 1020.6 |
| 20260906103143 | 8 | 108 | 4.8 | 9.7 | 0.00 | 0.18 | 0.00 | 99 | 1020.1 |
| 20260906102143 | 8 | 102 | 3.2 | 8.0 | 0.00 | 0.18 | 0.00 | 99 | 1020.4 |
| 20260906101122 | 8 | 72 | 4.8 | 11.3 | 0.00 | 0.18 | 0.00 | 99 | 1020.2 |
| 20260906100123 | 8 | 78 | 4.8 | 11.3 | 0.00 | 0.18 | 0.00 | 99 | 1020.2 |
| 20260906095124 | 8 | 72 | 4.8 | 12.9 | 0.00 | 0.18 | 0.00 | 99 | 1020.5 |
| 20260906094122 | 8 | 73 | 4.8 | 11.3 | 0.00 | 0.18 | 0.00 | 99 | 1020.9 |
| 20260906093122 | 8 | 94 | 6.4 | 14.5 | 0.00 | 0.18 | 0.00 | 99 | 1020.8 |
| 20260906092123 | 8 | 70 | 4.8 | 16.1 | 0.00 | 0.18 | 0.00 | 99 | 1020.9 |
| 20260906091124 | 8 | 78 | 3.2 | 9.7 | 0.00 | 0.18 | 0.00 | 99 | 1020.9 |
| 20260906090123 | 8 | 90 | 0.0 | 8.0 | 0.00 | 0.18 | 0.00 | 99 | 1020.9 |
| 20260906085122 | 8 | 100 | 1.6 | 4.8 | 0.00 | 0.18 | 0.00 | 99 | 1021.2 |
| 20260906084123 | 8 | 79 | 1.6 | 4.8 | 0.00 | 0.18 | 0.00 | 99 | 1021.2 |
| 20260906083123 | 8 | 92 | 1.6 | 6.4 | 0.00 | 0.18 | 0.00 | 99 | 1021.7 |
| 20260906082122 | 8 | 113 | 0.0 | 0.0 | 0.00 | 0.18 | 0.00 | 99 | 1021.6 |
| 20260906081143 | 8 | 239 | 1.6 | 12.9 | 0.00 | 0.18 | 0.00 | 99 | 1021.4 |
| 20260906080144 | 8 | 252 | 8.0 | 19.3 | 0.00 | 0.18 | 0.00 | 99 | 1021.4 |
| 20260906075143 | 8 | 251 | 8.0 | 16.1 | 0.00 | 0.18 | 0.00 | 99 | 1021.2 |
| 20260906074143 | 8 | 259 | 4.8 | 9.7 | 0.00 | 0.18 | 0.00 | 99 | 1021.4 |
| 20260906073122 | 8 | 252 | 1.6 | 6.4 | 0.00 | 0.18 | 0.00 | 99 | 1021.5 |
| 20260906072123 | 8 | 248 | 0.0 | 0.0 | 0.00 | 0.18 | 0.00 | 99 | 1021.7 |
| 20260906071123 | 8 | 283 | 1.6 | 8.0 | 0.00 | 0.18 | 0.00 | 99 | 1021.7 |
| 20260906070122 | 8 | 279 | 3.2 | 6.4 | 0.00 | 0.18 | 0.00 | 99 | 1021.7 |
| 20260906065122 | 8 | 248 | 4.8 | 12.9 | 0.00 | 0.18 | 0.00 | 99 | 1021.9 |
| 20260906064123 | 8 | 268 | 6.4 | 12.9 | 0.00 | 0.18 | 0.00 | 99 | 1021.8 |
| 20260906063122 | 8 | 289 | 4.8 | 12.9 | 0.00 | 0.18 | 0.00 | 99 | 1021.7 |
| 20260906062122 | 8 | 276 | 4.8 | 9.7 | 0.00 | 0.18 | 0.00 | 99 | 1021.8 |
| 20260906061122 | 8 | 278 | 6.4 | 12.9 | 0.00 | 0.18 | 0.00 | 99 | 1021.8 |
| 20260906060122 | 8 | 280 | 6.4 | 12.9 | 0.00 | 0.18 | 0.00 | 99 | 1021.8 |
| 20260906055122 | 8 | 270 | 6.4 | 12.9 | 0.00 | 0.18 | 0.18 | 99 | 1021.8 |
| 20260906054122 | 8 | 244 | 6.4 | 12.9 | 0.00 | 0.18 | 0.18 | 99 | 1021.9 |
| 20260906053125 | 8 | 258 | 6.4 | 12.9 | 0.00 | 0.18 | 0.18 | 99 | 1021.8 |
| 20260906052122 | 8 | 265 | 8.0 | 14.5 | 0.00 | 0.18 | 0.18 | 99 | 1021.9 |
| 20260906051144 | 8 | 245 | 9.7 | 17.7 | 0.00 | 0.18 | 0.18 | 99 | 1021.9 |
| 20260906050124 | 8 | 244 | 8.0 | 14.5 | 0.00 | 0.18 | 0.18 | 99 | 1021.9 |
| 20260906045122 | 8 | 255 | 4.8 | 11.3 | 0.00 | 0.18 | 0.18 | 99 | 1021.9 |
| 20260906044122 | 8 | 281 | 4.8 | 12.9 | 0.00 | 0.18 | 0.18 | 99 | 1021.9 |
| 20260906043143 | 8 | 298 | 3.2 | 8.0 | 0.03 | 0.18 | 0.18 | 99 | 1021.9 |
| 20260906042124 | 8 | 302 | 4.8 | 9.7 | 0.03 | 0.18 | 0.18 | 99 | 1021.8 |
| 20260906041122 | 8 | 346 | 4.8 | 9.7 | 0.03 | 0.18 | 0.18 | 99 | 1021.7 |
| 20260906040123 | 8 | 351 | 4.8 | 11.3 | 0.03 | 0.18 | 0.18 | 99 | 1021.7 |
| 20260906035123 | 8 | 358 | 3.2 | 9.7 | 0.03 | 0.18 | 0.18 | 99 | 1021.6 |
| 20260906034123 | 8 | 30 | 4.8 | 12.9 | 0.03 | 0.18 | 0.18 | 99 | 1021.5 |
| 20260906033143 | 8 | 3 | 6.4 | 12.9 | 0.00 | 0.15 | 0.15 | 99 | 1021.4 |
| 20260906032124 | 8 | 326 | 6.4 | 12.9 | 0.00 | 0.15 | 0.15 | 99 | 1021.2 |
| 20260906031122 | 8 | 312 | 9.7 | 20.9 | 0.00 | 0.15 | 0.15 | 99 | 1021.4 |
| 20260906030123 | 8 | 299 | 9.7 | 19.3 | 0.00 | 0.15 | 0.15 | 99 | 1021.4 |
| 20260906025144 | 8 | 303 | 9.7 | 19.3 | 0.00 | 0.15 | 0.15 | 99 | 1021.2 |
| 20260906024122 | 8 | 305 | 11.3 | 22.5 | 0.00 | 0.15 | 0.15 | 99 | 1021.2 |
| 20260906023122 | 8 | 299 | 9.7 | 19.3 | 0.00 | 0.15 | 0.15 | 99 | 1021.2 |
| 20260906022123 | 8 | 287 | 8.0 | 17.7 | 0.03 | 0.15 | 0.15 | 99 | 1021.2 |
| 20260906021122 | 8 | 288 | 9.7 | 17.7 | 0.03 | 0.15 | 0.15 | 99 | 1021.2 |
| 20260906020126 | 8 | 276 | 9.7 | 17.7 | 0.03 | 0.15 | 0.15 | 99 | 1021.2 |
| 20260906015122 | 8 | 271 | 8.0 | 14.5 | 0.03 | 0.15 | 0.15 | 99 | 1021.2 |
| 20260906014144 | 8 | 300 | 8.0 | 14.5 | 0.05 | 0.15 | 0.15 | 99 | 1021.2 |
| 20260906013124 | 8 | 300 | 6.4 | 12.9 | 0.05 | 0.15 | 0.15 | 99 | 1021.2 |
| 20260906012145 | 8 | 294 | 6.4 | 12.9 | 0.05 | 0.15 | 0.15 | 99 | 1021.1 |
| 20260906011122 | 8 | 307 | 6.4 | 12.9 | 0.05 | 0.13 | 0.13 | 99 | 1021.0 |
| 20260906010122 | 9 | 356 | 6.4 | 12.9 | 0.08 | 0.13 | 0.13 | 99 | 1021.0 |
| 20260906005122 | 8 | 324 | 6.4 | 12.9 | 0.08 | 0.13 | 0.13 | 99 | 1021.0 |
| 20260906004143 | 8 | 297 | 8.0 | 12.9 | 0.05 | 0.10 | 0.10 | 99 | 1021.1 |
| 20260906003123 | 8 | 310 | 6.4 | 12.9 | 0.05 | 0.10 | 0.10 | 99 | 1021.2 |
| 20260906002145 | 8 | 323 | 6.4 | 16.1 | 0.05 | 0.10 | 0.10 | 99 | 1021.1 |
| 20260906001122 | 8 | 340 | 6.4 | 14.5 | 0.03 | 0.08 | 0.08 | 99 | 1021.1 |
| 20260906000123 | 8 | 326 | 6.4 | 16.1 | 0.00 | 0.05 | 0.05 | 99 | 1021.1 |
| 20260905235126 | 8 | 328 | 6.4 | 17.7 | 0.00 | 0.05 | 0.05 | 99 | 1021.0 |
| 20260905234122 | 8 | 1 | 8.0 | 16.1 | 0.00 | 0.05 | 0.05 | 99 | 1021.1 |
| 20260905233122 | 9 | 37 | 8.0 | 17.7 | 0.00 | 0.05 | 0.05 | 99 | 1021.0 |